Time;durP1;ratioP1;P1;durP2;ratioP2;P2;SDS_P1;SDS_P2;PMS_P1;PMS_P2;Temp;Humidity;BMP_temperature;BMP_pressure;BME280_temperature;BME280_humidity;BME280_pressure;Samples;Min_cycle;Max_cycle;Signal;HPM_P1;HPM_P2
2023/06/13 00:01:35;;;;;;;6.47;3.67;;;;;;;17.96;60.30;96971.84;5059889;28;20697;-79
2023/06/13 00:04:03;;;;;;;6.10;4.20;;;;;;;17.98;60.47;96979.53;5060922;28;20404;-78
2023/06/13 00:06:34;;;;;;;8.27;4.33;;;;;;;18.03;59.62;96974.06;5061170;28;20463;-79
2023/06/13 00:09:00;;;;;;;4.63;3.60;;;;;;;17.92;60.28;96967.41;5060677;28;20405;-79
2023/06/13 00:11:26;;;;;;;7.32;4.35;;;;;;;17.91;60.52;96974.63;5060997;28;20412;-79
2023/06/13 00:13:53;;;;;;;7.43;4.47;;;;;;;17.93;57.96;96972.44;5060709;28;20424;-79
2023/06/13 00:16:25;;;;;;;6.57;4.05;;;;;;;17.83;58.12;96974.59;5043855;28;20399;-77
2023/06/13 00:18:52;;;;;;;5.07;3.60;;;;;;;17.81;58.47;96968.78;5040991;28;20417;-79
2023/06/13 00:21:18;;;;;;;7.30;4.25;;;;;;;17.87;58.14;96967.53;5041000;28;20467;-78
2023/06/13 00:23:45;;;;;;;5.40;3.80;;;;;;;17.72;59.58;96971.41;5039505;28;20492;-79
2023/06/13 00:26:11;;;;;;;6.55;4.65;;;;;;;17.75;58.74;96966.22;5039842;28;20426;-79
2023/06/13 00:28:37;;;;;;;5.43;4.00;;;;;;;17.66;58.25;96962.72;5040361;28;20410;-79
2023/06/13 00:31:03;;;;;;;6.75;4.43;;;;;;;17.70;58.16;96970.91;5039519;28;20434;-78
2023/06/13 00:33:31;;;;;;;7.72;4.32;;;;;;;17.68;56.11;96971.22;5040521;28;20901;-78
2023/06/13 00:35:58;;;;;;;10.75;4.53;;;;;;;17.56;56.94;96965.59;5040560;28;20407;-78
2023/06/13 00:38:24;;;;;;;6.88;4.40;;;;;;;17.53;57.96;96960.84;5040636;28;20422;-78
2023/06/13 00:40:51;;;;;;;9.23;4.65;;;;;;;17.61;56.85;96965.50;5037128;28;20773;-79
2023/06/13 00:43:18;;;;;;;5.68;3.72;;;;;;;17.53;58.14;96963.53;5035435;28;20392;-80
2023/06/13 00:45:44;;;;;;;7.30;4.13;;;;;;;17.45;58.15;96963.47;5034629;28;20403;-80
2023/06/13 00:48:11;;;;;;;8.35;4.25;;;;;;;17.52;57.19;96961.16;5034748;28;20403;-80
2023/06/13 00:50:40;;;;;;;6.05;3.80;;;;;;;17.49;57.12;96951.06;5035377;28;20411;-80
2023/06/13 00:53:09;;;;;;;6.95;4.15;;;;;;;17.45;57.90;96953.56;5036480;28;20419;-80
2023/06/13 00:55:37;;;;;;;6.70;4.10;;;;;;;17.39;59.09;96947.56;5035438;28;20421;-80
2023/06/13 00:58:06;;;;;;;7.40;4.00;;;;;;;17.34;58.93;96953.03;5035734;28;20399;-80
2023/06/13 01:00:33;;;;;;;6.93;4.30;;;;;;;17.22;59.08;96955.44;5039021;28;20403;-81
2023/06/13 01:03:07;;;;;;;8.98;4.72;;;;;;;17.29;57.96;96961.16;5040318;28;20399;-79
2023/06/13 01:05:33;;;;;;;7.22;4.00;;;;;;;17.16;59.33;96958.56;5038698;28;20502;-78
2023/06/13 01:08:04;;;;;;;7.70;4.40;;;;;;;17.17;59.98;96957.47;5043292;28;20593;-78
2023/06/13 01:10:32;;;;;;;9.33;4.30;;;;;;;17.16;60.66;96958.56;5042994;28;20413;-79
2023/06/13 01:13:08;;;;;;;6.67;3.80;;;;;;;17.05;61.32;96949.19;5037878;28;20449;-80
2023/06/13 01:15:38;;;;;;;7.07;4.25;;;;;;;17.11;60.70;96951.44;5037300;28;20399;-79
2023/06/13 01:18:08;;;;;;;6.90;4.35;;;;;;;17.03;60.59;96944.94;5037152;28;20399;-80
2023/06/13 01:20:36;;;;;;;7.85;4.85;;;;;;;17.10;59.48;96941.84;5038136;28;20498;-78
2023/06/13 01:23:15;;;;;;;7.20;4.10;;;;;;;16.97;59.86;96942.69;5038355;28;20409;-80
2023/06/13 01:25:52;;;;;;;7.47;4.82;;;;;;;17.04;59.01;96937.72;5037258;28;20407;-78
2023/06/13 01:28:22;;;;;;;8.33;4.23;;;;;;;16.91;60.58;96934.00;5038442;28;20399;-79
2023/06/13 01:30:50;;;;;;;6.13;4.23;;;;;;;16.90;61.18;96939.66;5038263;28;20885;-78
2023/06/13 01:33:17;;;;;;;9.60;5.03;;;;;;;16.94;60.43;96936.06;5037575;28;20508;-79
2023/06/13 01:35:45;;;;;;;5.38;4.05;;;;;;;16.87;61.44;96935.69;5039714;28;20510;-78
2023/06/13 01:38:12;;;;;;;8.68;4.43;;;;;;;16.93;61.45;96939.81;5042137;28;20432;-78
2023/06/13 01:40:38;;;;;;;8.25;4.45;;;;;;;16.89;62.45;96940.72;5041684;28;20502;-78
2023/06/13 01:43:06;;;;;;;7.65;4.18;;;;;;;16.89;61.99;96943.41;5044098;28;20399;-77
2023/06/13 01:45:34;;;;;;;7.00;4.30;;;;;;;16.88;60.73;96928.44;5042559;28;20415;-78
2023/06/13 01:48:14;;;;;;;7.05;4.00;;;;;;;16.81;62.02;96928.88;5043389;28;20403;-78
2023/06/13 01:50:48;;;;;;;5.55;4.00;;;;;;;16.77;62.81;96922.53;5042619;28;20415;-79
2023/06/13 01:53:24;;;;;;;6.40;4.13;;;;;;;16.72;63.58;96930.69;5042713;28;20415;-79
2023/06/13 01:55:56;;;;;;;5.27;3.97;;;;;;;16.75;64.01;96926.63;5039676;28;20773;-80
2023/06/13 01:58:26;;;;;;;9.63;4.00;;;;;;;16.76;63.33;96923.66;5038561;28;20447;-80
2023/06/13 02:00:57;;;;;;;7.60;4.32;;;;;;;16.84;61.83;96922.16;5038393;28;20413;-79
2023/06/13 02:03:24;;;;;;;7.18;4.03;;;;;;;16.66;64.16;96923.06;5038845;28;20403;-80
2023/06/13 02:05:51;;;;;;;7.28;4.00;;;;;;;16.68;64.27;96921.69;5039742;28;20399;-80
2023/06/13 02:08:17;;;;;;;7.18;4.35;;;;;;;16.57;65.19;96918.41;5037650;28;20518;-81
2023/06/13 02:10:44;;;;;;;6.20;3.90;;;;;;;16.58;65.35;96921.88;5037388;28;20404;-80
2023/06/13 02:13:12;;;;;;;6.88;3.90;;;;;;;16.56;64.87;96919.50;5037003;28;20928;-80
2023/06/13 02:15:38;;;;;;;6.60;4.00;;;;;;;16.43;66.71;96925.66;5037797;28;20414;-80
2023/06/13 02:18:06;;;;;;;5.68;3.85;;;;;;;16.40;66.86;96912.91;5037134;28;20400;-78
2023/06/13 02:20:34;;;;;;;7.40;4.25;;;;;;;16.41;66.33;96919.03;5037464;28;20403;-79
2023/06/13 02:23:02;;;;;;;7.10;4.43;;;;;;;16.31;67.15;96917.38;5037126;28;20506;-78
2023/06/13 02:25:28;;;;;;;5.25;3.80;;;;;;;16.25;67.80;96926.56;5035751;28;20966;-79
2023/06/13 02:27:54;;;;;;;6.88;4.05;;;;;;;16.25;67.40;96919.34;5037019;28;20482;-79
2023/06/13 02:30:21;;;;;;;7.70;4.30;;;;;;;16.33;64.58;96917.84;5037089;28;20470;-80
2023/06/13 02:32:47;;;;;;;6.63;4.20;;;;;;;16.24;65.21;96920.44;5036379;28;20415;-80
2023/06/13 02:35:14;;;;;;;6.35;4.10;;;;;;;16.22;66.55;96921.84;5036657;28;20438;-79
2023/06/13 02:37:41;;;;;;;9.60;4.75;;;;;;;16.27;65.18;96921.72;5037103;28;20407;-80
2023/06/13 02:40:09;;;;;;;6.68;4.35;;;;;;;16.18;66.08;96921.63;5037059;28;20399;-80
2023/06/13 02:42:35;;;;;;;8.10;4.00;;;;;;;16.23;65.36;96921.53;5036497;28;20407;-80
2023/06/13 02:45:03;;;;;;;6.85;3.95;;;;;;;16.25;65.88;96921.22;5036823;28;20399;-80
2023/06/13 02:47:29;;;;;;;7.15;4.35;;;;;;;16.29;63.88;96924.09;5036790;28;20399;-78
2023/06/13 02:49:55;;;;;;;6.97;4.30;;;;;;;16.30;64.59;96925.69;5037011;28;20437;-80
2023/06/13 02:52:23;;;;;;;7.20;4.10;;;;;;;16.15;66.31;96924.13;5035949;28;20444;-80
2023/06/13 02:54:49;;;;;;;5.53;3.88;;;;;;;16.10;66.42;96924.19;5036167;28;20421;-80
2023/06/13 02:57:16;;;;;;;7.30;3.88;;;;;;;16.10;66.99;96929.53;5036009;28;20411;-80
2023/06/13 02:59:42;;;;;;;5.53;3.55;;;;;;;16.05;66.07;96925.09;5036378;28;20405;-79
2023/06/13 03:02:09;;;;;;;5.72;3.78;;;;;;;16.03;66.57;96919.25;5035576;28;20403;-79
2023/06/13 03:04:36;;;;;;;7.80;4.20;;;;;;;15.98;67.43;96924.72;5035542;28;20403;-80
2023/06/13 03:07:05;;;;;;;6.82;3.78;;;;;;;15.93;69.08;96929.34;5035490;28;20431;-80
2023/06/13 03:09:33;;;;;;;6.70;3.77;;;;;;;15.96;69.24;96926.09;5036283;28;20460;-81
2023/06/13 03:11:59;;;;;;;6.43;3.87;;;;;;;15.97;68.85;96917.78;5036534;28;20438;-80
2023/06/13 03:14:25;;;;;;;7.03;4.20;;;;;;;15.95;69.38;96924.50;5035107;28;20415;-79
2023/06/13 03:16:52;;;;;;;5.32;3.80;;;;;;;15.91;68.29;96932.31;5035429;28;20957;-79
2023/06/13 03:19:18;;;;;;;8.23;4.60;;;;;;;15.85;68.23;96925.50;5035387;28;20430;-80
2023/06/13 03:21:44;;;;;;;5.07;3.80;;;;;;;15.78;68.69;96931.22;5034960;28;20407;-80
2023/06/13 03:24:11;;;;;;;5.80;4.00;;;;;;;15.71;68.96;96940.72;5035134;28;20411;-80
2023/06/13 03:26:39;;;;;;;4.97;3.67;;;;;;;15.67;69.42;96937.81;5039882;28;20967;-79
2023/06/13 03:29:05;;;;;;;7.60;4.22;;;;;;;15.65;69.24;96933.84;5042911;28;20480;-77
2023/06/13 03:31:32;;;;;;;5.90;4.00;;;;;;;15.67;68.68;96935.16;5041831;28;20425;-78
2023/06/13 03:33:58;;;;;;;6.50;4.13;;;;;;;15.66;70.10;96944.25;5041239;28;20414;-78
2023/06/13 03:36:26;;;;;;;5.47;3.60;;;;;;;15.62;70.51;96935.25;5041346;28;20403;-78
2023/06/13 03:38:53;;;;;;;11.25;3.70;;;;;;;15.67;70.29;96937.03;5041240;28;20407;-78
2023/06/13 03:41:19;;;;;;;5.80;3.60;;;;;;;15.65;70.20;96949.88;5040778;28;20574;-79
2023/06/13 03:43:46;;;;;;;4.93;3.42;;;;;;;15.69;70.42;96943.66;5040215;28;20403;-78
2023/06/13 03:46:13;;;;;;;5.27;3.37;;;;;;;15.71;70.53;96954.06;5038423;28;20757;-78
2023/06/13 03:48:40;;;;;;;8.57;3.80;;;;;;;15.81;68.31;96953.84;5038610;28;20406;-78
2023/06/13 03:51:08;;;;;;;6.13;4.07;;;;;;;15.82;68.63;96960.78;5040090;28;20407;-78
2023/06/13 03:53:34;;;;;;;7.45;3.63;;;;;;;15.91;69.29;96956.34;5039508;28;20445;-78
2023/06/13 03:56:01;;;;;;;9.70;4.20;;;;;;;15.99;67.52;96958.31;5038927;28;20410;-77
2023/06/13 03:58:28;;;;;;;4.97;3.40;;;;;;;16.05;67.86;96959.00;5038922;28;20400;-78
2023/06/13 04:00:57;;;;;;;6.38;3.83;;;;;;;16.11;68.08;96965.84;5040323;28;20406;-78
2023/06/13 04:03:23;;;;;;;6.18;3.60;;;;;;;16.16;68.10;96965.75;5040416;28;20499;-78
2023/06/13 04:05:49;;;;;;;6.47;3.67;;;;;;;16.18;68.36;96964.34;5039918;28;20474;-77
2023/06/13 04:08:17;;;;;;;4.55;3.25;;;;;;;16.25;68.40;96972.75;5040310;28;20415;-79
2023/06/13 04:10:43;;;;;;;6.20;3.70;;;;;;;16.31;67.24;96968.13;5036510;28;20461;-78
2023/06/13 04:13:09;;;;;;;5.10;3.13;;;;;;;16.34;68.06;96964.84;5037496;28;20437;-78
2023/06/13 04:15:36;;;;;;;5.40;3.50;;;;;;;16.40;67.80;96974.34;5035818;28;20407;-77
2023/06/13 04:18:05;;;;;;;5.85;3.58;;;;;;;16.47;66.63;96974.72;5049926;28;20420;-79
2023/06/13 04:20:34;;;;;;;4.85;3.35;;;;;;;16.51;65.92;96978.41;5065714;28;20886;-79
2023/06/13 04:23:01;;;;;;;6.85;3.20;;;;;;;16.59;64.40;96974.22;5060110;28;20408;-79
2023/06/13 04:25:27;;;;;;;6.13;3.35;;;;;;;16.61;65.08;96980.88;5059532;28;20410;-78
2023/06/13 04:27:57;;;;;;;5.15;3.42;;;;;;;16.68;63.24;96975.16;5061675;28;20425;-78
2023/06/13 04:30:24;;;;;;;7.15;3.35;;;;;;;16.71;63.42;96971.06;5070424;28;20404;-78
2023/06/13 04:32:51;;;;;;;9.20;3.57;;;;;;;16.75;61.48;96972.06;5062144;28;20472;-79
2023/06/13 04:35:21;;;;;;;7.35;2.97;;;;;;;16.74;62.35;96976.63;5059713;28;20409;-77
2023/06/13 04:37:48;;;;;;;6.20;3.25;;;;;;;16.73;64.25;96982.25;5059778;28;20591;-78
2023/06/13 04:40:16;;;;;;;9.15;3.42;;;;;;;16.81;61.56;96979.66;5060782;28;20486;-78
2023/06/13 04:42:47;;;;;;;5.23;3.30;;;;;;;16.78;63.00;96985.59;5062820;28;20479;-79
2023/06/13 04:45:15;;;;;;;4.75;3.25;;;;;;;16.80;63.59;96991.44;5062757;28;20420;-79
2023/06/13 04:47:45;;;;;;;13.90;3.60;;;;;;;16.84;59.56;96984.38;5052220;28;20404;-79
2023/06/13 04:50:11;;;;;;;8.80;3.30;;;;;;;16.87;59.61;96991.03;5053171;28;20444;-80
2023/06/13 04:52:41;;;;;;;7.30;3.47;;;;;;;16.92;59.78;96983.69;5055220;28;20431;-80
2023/06/13 04:55:07;;;;;;;4.55;2.70;;;;;;;16.95;60.35;96984.97;5061633;28;20894;-81
2023/06/13 04:57:34;;;;;;;11.18;3.72;;;;;;;16.99;59.08;96988.59;5052919;28;20446;-80
2023/06/13 05:00:01;;;;;;;9.02;3.58;;;;;;;17.01;61.18;96991.78;5050229;28;20399;-80
2023/06/13 05:02:28;;;;;;;7.22;3.50;;;;;;;17.09;60.42;96991.06;5039021;28;20430;-81
2023/06/13 05:04:57;;;;;;;6.70;3.63;;;;;;;17.14;61.31;96982.91;5038596;28;20426;-80
2023/06/13 05:07:24;;;;;;;9.02;2.90;;;;;;;17.22;62.17;96992.91;5039234;28;20782;-80
2023/06/13 05:09:52;;;;;;;5.22;3.15;;;;;;;17.31;60.96;96998.31;5039612;28;20407;-79
2023/06/13 05:12:19;;;;;;;5.55;3.42;;;;;;;17.39;59.46;96992.25;5040966;28;20410;-79
2023/06/13 05:14:45;;;;;;;11.20;3.25;;;;;;;17.42;57.65;96997.00;5041907;28;20410;-79
2023/06/13 05:17:12;;;;;;;8.63;3.45;;;;;;;17.42;58.09;96992.44;5037191;28;20403;-79
2023/06/13 05:19:38;;;;;;;7.72;3.03;;;;;;;17.48;58.84;97001.13;5037373;28;20917;-81
2023/06/13 05:22:05;;;;;;;6.43;3.35;;;;;;;17.48;55.24;96995.78;5039054;28;20908;-79
2023/06/13 05:24:32;;;;;;;8.90;3.42;;;;;;;17.55;56.06;96990.78;5041103;28;20399;-78
2023/06/13 05:27:00;;;;;;;7.20;2.97;;;;;;;17.57;56.68;96993.97;5041133;28;20411;-78
2023/06/13 05:29:27;;;;;;;8.23;3.70;;;;;;;17.56;54.85;96997.72;5040815;28;20414;-81
2023/06/13 05:31:53;;;;;;;5.40;2.70;;;;;;;17.59;55.25;96986.38;5038886;28;20517;-79
2023/06/13 05:34:21;;;;;;;5.50;3.00;;;;;;;17.61;56.33;96986.91;5041051;28;20411;-81
2023/06/13 05:36:47;;;;;;;8.82;3.45;;;;;;;17.68;52.77;96987.28;5040175;28;20760;-80
2023/06/13 05:39:14;;;;;;;7.25;3.45;;;;;;;17.66;53.34;96992.16;5041109;28;20403;-79
2023/06/13 05:41:41;;;;;;;6.70;3.20;;;;;;;17.70;54.13;96989.66;5050623;28;20439;-80
2023/06/13 05:44:09;;;;;;;5.60;2.90;;;;;;;17.73;53.35;96991.72;5059136;28;20406;-79
2023/06/13 05:46:36;;;;;;;6.53;2.90;;;;;;;17.76;54.43;96991.09;5059555;28;20401;-81
2023/06/13 05:49:02;;;;;;;10.70;3.00;;;;;;;17.78;55.21;96988.91;5059917;28;20417;-82
2023/06/13 05:51:29;;;;;;;6.82;3.13;;;;;;;17.79;55.71;96996.63;5060311;28;20466;-81
2023/06/13 05:53:55;;;;;;;8.82;3.45;;;;;;;17.79;53.66;96990.50;5060152;28;21014;-80
2023/06/13 05:56:21;;;;;;;6.00;2.87;;;;;;;17.81;51.93;96990.19;5059045;28;20575;-82
2023/06/13 05:58:48;;;;;;;5.40;2.80;;;;;;;17.78;52.75;96992.38;5059490;28;20477;-81
2023/06/13 06:01:16;;;;;;;4.90;2.85;;;;;;;17.75;50.76;96992.97;5059616;28;20759;-79
2023/06/13 06:03:42;;;;;;;3.78;2.80;;;;;;;17.73;50.64;96991.72;5058969;28;20406;-81
2023/06/13 06:06:08;;;;;;;5.88;3.20;;;;;;;17.65;48.83;96989.78;5057372;28;20405;-78
2023/06/13 06:08:34;;;;;;;6.93;2.85;;;;;;;17.64;48.65;96986.31;5043523;28;20757;-78
2023/06/13 06:11:01;;;;;;;5.88;2.90;;;;;;;17.59;49.26;96981.03;5054196;28;20444;-78
2023/06/13 06:13:27;;;;;;;5.82;3.08;;;;;;;17.61;48.55;96992.28;5057215;28;20699;-77
2023/06/13 06:15:53;;;;;;;5.82;3.03;;;;;;;17.64;47.05;96977.50;5056175;28;20441;-78
2023/06/13 06:18:22;;;;;;;7.80;3.47;;;;;;;17.63;47.12;96987.41;5056623;28;20401;-79
2023/06/13 06:20:48;;;;;;;7.50;3.30;;;;;;;17.60;47.56;96987.19;5058182;28;20455;-78
2023/06/13 06:23:14;;;;;;;6.05;3.40;;;;;;;17.55;47.30;96988.09;5056739;28;20434;-77
2023/06/13 06:25:41;;;;;;;7.82;3.30;;;;;;;17.59;47.67;96977.59;5056365;28;20397;-77
2023/06/13 06:28:08;;;;;;;13.75;4.20;;;;;;;17.61;47.98;96973.53;5057059;28;20414;-78
2023/06/13 06:30:35;;;;;;;11.52;3.05;;;;;;;17.61;47.23;96981.56;5059475;28;20401;-77
2023/06/13 06:33:01;;;;;;;10.68;3.25;;;;;;;17.58;46.32;96986.72;5057480;28;20409;-79
2023/06/13 06:35:29;;;;;;;7.18;2.88;;;;;;;17.60;47.72;96977.28;5057707;28;20929;-79
2023/06/13 06:37:55;;;;;;;6.18;3.20;;;;;;;17.58;46.92;96994.75;5057258;28;20420;-79
2023/06/13 06:40:21;;;;;;;5.40;3.40;;;;;;;17.67;47.42;96982.22;5058684;28;20440;-80
2023/06/13 06:42:48;;;;;;;5.07;2.83;;;;;;;17.70;47.52;96984.28;5058808;28;20405;-79
2023/06/13 06:45:14;;;;;;;4.57;2.88;;;;;;;17.76;47.66;96983.84;5060295;28;20748;-79
2023/06/13 06:47:41;;;;;;;4.80;2.80;;;;;;;17.79;47.86;96983.25;5057678;28;20413;-78
2023/06/13 06:50:08;;;;;;;6.57;3.22;;;;;;;17.84;47.47;96978.84;5057047;28;20398;-80
2023/06/13 06:52:36;;;;;;;5.80;2.60;;;;;;;17.91;47.57;96998.75;5057794;28;20408;-78
2023/06/13 06:55:03;;;;;;;7.47;2.80;;;;;;;17.97;46.92;96991.34;5058476;28;20445;-79
2023/06/13 06:57:29;;;;;;;9.45;3.17;;;;;;;17.98;46.17;96995.63;5056084;28;20433;-81
2023/06/13 06:59:55;;;;;;;6.85;2.80;;;;;;;18.03;46.42;96998.97;5056999;28;20409;-80
2023/06/13 07:02:22;;;;;;;5.87;3.03;;;;;;;18.06;46.05;96989.50;5057185;28;20405;-80
2023/06/13 07:04:48;;;;;;;6.88;3.17;;;;;;;18.08;46.41;96990.00;5057248;28;20394;-79
2023/06/13 07:07:14;;;;;;;6.43;2.90;;;;;;;18.07;47.25;96989.22;5055036;28;20476;-80
2023/06/13 07:09:42;;;;;;;5.65;3.30;;;;;;;18.09;46.08;96989.69;5057843;28;20404;-80
2023/06/13 07:12:09;;;;;;;9.73;3.17;;;;;;;18.09;45.18;96979.00;5058875;28;20420;-80
2023/06/13 07:14:37;;;;;;;6.93;2.80;;;;;;;18.12;45.68;96986.38;5063861;28;20409;-77
2023/06/13 07:17:04;;;;;;;5.50;3.00;;;;;;;18.17;46.20;96980.91;5060680;28;21024;-80
2023/06/13 07:19:31;;;;;;;8.32;3.83;;;;;;;18.15;44.60;96980.41;5056793;28;20769;-79
2023/06/13 07:21:57;;;;;;;7.38;3.45;;;;;;;18.14;45.58;96978.84;5055301;28;20526;-81
2023/06/13 07:24:23;;;;;;;6.57;2.70;;;;;;;18.14;45.90;96975.38;5064639;28;20402;-79
2023/06/13 07:26:51;;;;;;;4.95;2.83;;;;;;;18.20;47.85;96982.16;5054157;28;20405;-79
2023/06/13 07:29:17;;;;;;;7.35;2.72;;;;;;;18.27;48.03;96971.78;5057228;28;20599;-78
2023/06/13 07:31:43;;;;;;;5.80;2.92;;;;;;;18.34;47.58;96982.88;5055423;28;20415;-78
2023/06/13 07:34:10;;;;;;;4.37;2.83;;;;;;;18.38;46.54;96973.09;5055963;28;20419;-78
2023/06/13 07:36:37;;;;;;;7.35;2.75;;;;;;;18.43;47.61;96975.63;5055630;28;20427;-79
2023/06/13 07:39:10;;;;;;;3.75;2.45;;;;;;;18.49;48.82;96985.09;5056578;28;20423;-78
2023/06/13 07:41:36;;;;;;;7.03;2.60;;;;;;;18.54;47.84;96974.25;5057854;28;20428;-77
2023/06/13 07:44:05;;;;;;;6.63;3.10;;;;;;;18.58;46.88;96987.84;5055847;28;20431;-77
2023/06/13 07:46:31;;;;;;;6.50;2.75;;;;;;;18.68;47.70;96982.19;5055301;28;20463;-79
2023/06/13 07:48:58;;;;;;;5.90;2.63;;;;;;;18.66;47.19;96976.34;5055531;28;20413;-78
2023/06/13 07:51:24;;;;;;;4.65;2.67;;;;;;;18.71;47.70;96970.84;5069700;23;20943;-78
2023/06/13 07:53:50;;;;;;;14.13;3.58;;;;;;;18.74;48.08;96967.53;5044419;28;20423;-78
2023/06/13 07:56:16;;;;;;;4.30;2.83;;;;;;;18.80;49.18;96965.47;5044409;28;20430;-78
2023/06/13 07:58:43;;;;;;;5.35;3.25;;;;;;;18.85;48.50;96958.09;5049778;28;20412;-77
2023/06/13 08:01:11;;;;;;;3.53;2.70;;;;;;;18.93;48.68;96957.31;5045996;28;20426;-77
2023/06/13 08:03:37;;;;;;;5.10;2.70;;;;;;;19.04;48.95;96949.72;5047767;28;20402;-78
2023/06/13 08:06:03;;;;;;;4.22;2.67;;;;;;;19.11;47.94;96941.97;5045629;28;20429;-77
2023/06/13 08:08:30;;;;;;;5.07;2.30;;;;;;;19.21;48.94;96948.94;5048363;28;21008;-77
2023/06/13 08:10:56;;;;;;;5.68;2.95;;;;;;;19.32;48.96;96947.50;5040274;28;20465;-78
2023/06/13 08:13:22;;;;;;;10.23;2.90;;;;;;;19.38;47.45;96956.19;5041772;28;20456;-78
2023/06/13 08:15:49;;;;;;;5.82;2.65;;;;;;;19.49;47.14;96957.44;5038378;28;20399;-78
2023/06/13 08:18:16;;;;;;;5.43;2.90;;;;;;;19.59;47.07;96954.44;5037477;28;20405;-77
2023/06/13 08:20:43;;;;;;;6.43;2.97;;;;;;;19.68;48.20;96955.22;5034467;28;20433;-77
2023/06/13 08:23:09;;;;;;;5.78;2.53;;;;;;;19.81;48.54;96956.91;5035648;28;20402;-77
2023/06/13 08:25:36;;;;;;;4.18;2.60;;;;;;;19.85;46.21;96951.66;5041984;28;20391;-79
2023/06/13 08:28:06;;;;;;;4.00;2.70;;;;;;;19.97;47.90;96946.44;5042044;28;20459;-78
2023/06/13 08:30:32;;;;;;;5.78;2.47;;;;;;;20.07;48.95;96951.47;5039315;28;20407;-78
2023/06/13 08:33:01;;;;;;;3.90;2.55;;;;;;;20.15;48.06;96942.53;5038754;28;20414;-78
2023/06/13 08:35:30;;;;;;;3.88;2.58;;;;;;;20.24;48.62;96948.66;5038280;28;20780;-77
2023/06/13 08:37:56;;;;;;;4.97;2.55;;;;;;;20.28;47.41;96951.50;5034556;28;20754;-77
2023/06/13 08:40:39;;;;;;;9.02;3.30;;;;;;;20.31;47.93;96948.16;5037684;28;20490;-78
2023/06/13 08:43:07;;;;;;;5.25;2.90;;;;;;;20.34;47.76;96942.19;5034984;28;20412;-77
2023/06/13 08:45:33;;;;;;;7.07;3.05;;;;;;;20.39;47.70;96952.75;5033872;28;20406;-77
2023/06/13 08:48:06;;;;;;;7.27;3.10;;;;;;;20.44;46.16;96950.66;5033930;28;20399;-77
2023/06/13 08:50:36;;;;;;;4.00;2.60;;;;;;;20.56;48.63;96958.03;5033406;28;20456;-77
2023/06/13 08:53:03;;;;;;;6.65;2.88;;;;;;;20.65;48.17;96941.84;5033070;28;20454;-77
2023/06/13 08:55:40;;;;;;;8.82;3.08;;;;;;;20.70;47.19;96937.06;5032425;28;20419;-77
2023/06/13 08:58:14;;;;;;;4.03;2.50;;;;;;;20.78;47.93;96943.47;5031546;28;20438;-77
2023/06/13 09:01:19;;;;;;;4.88;2.80;;;;;;;20.86;47.28;96948.00;5031292;28;20395;-77
2023/06/13 09:03:46;;;;;;;3.42;2.40;;;;;;;20.98;47.06;96939.22;5031104;28;20430;-77
2023/06/13 09:06:19;;;;;;;9.10;2.97;;;;;;;21.07;48.08;96939.94;5029786;28;20978;-77
2023/06/13 09:08:47;;;;;;;6.87;3.03;;;;;;;21.12;47.00;96942.44;5030233;28;20473;-77
2023/06/13 09:11:17;;;;;;;5.68;2.92;;;;;;;21.20;46.92;96941.63;5031287;28;20840;-77
2023/06/13 09:13:44;;;;;;;4.93;3.13;;;;;;;21.29;47.03;96934.22;5031124;28;20892;-76
2023/06/13 09:16:25;;;;;;;4.72;2.90;;;;;;;21.37;46.47;96944.13;5031547;28;20418;-76
2023/06/13 09:18:51;;;;;;;5.70;3.05;;;;;;;21.41;44.54;96930.81;5031771;28;20399;-77
2023/06/13 09:21:20;;;;;;;12.18;3.20;;;;;;;21.45;44.97;96935.19;5035332;28;20402;-78
2023/06/13 09:23:48;;;;;;;6.30;3.30;;;;;;;21.49;45.21;96932.63;5035246;28;20437;-78
2023/06/13 09:26:15;;;;;;;6.30;2.95;;;;;;;21.64;43.66;96940.09;5034067;28;20469;-77
2023/06/13 09:28:44;;;;;;;9.77;3.15;;;;;;;21.67;43.64;96936.69;5036132;28;20792;-78
2023/06/13 09:31:14;;;;;;;10.30;3.65;;;;;;;21.67;42.06;96930.53;5035800;28;20422;-77
2023/06/13 09:33:42;;;;;;;5.40;3.13;;;;;;;21.67;41.19;96931.31;5037904;28;20418;-77
2023/06/13 09:36:11;;;;;;;4.55;3.08;;;;;;;21.78;43.35;96942.47;5035670;28;20414;-78
2023/06/13 09:38:41;;;;;;;4.20;2.72;;;;;;;21.81;42.75;96936.38;5035640;28;20477;-78
2023/06/13 09:41:11;;;;;;;4.75;2.75;;;;;;;21.81;42.19;96933.69;5037103;28;20395;-77
2023/06/13 09:43:38;;;;;;;6.40;2.92;;;;;;;21.87;43.70;96930.47;5039151;28;20402;-77
2023/06/13 09:46:04;;;;;;;4.00;2.80;;;;;;;22.00;44.64;96921.31;5034820;28;20410;-78
2023/06/13 09:48:31;;;;;;;4.50;2.90;;;;;;;22.08;43.67;96930.41;5035299;28;20438;-78
2023/06/13 09:50:57;;;;;;;5.82;2.90;;;;;;;22.11;43.08;96926.22;5034869;28;20404;-77
2023/06/13 09:53:25;;;;;;;4.63;2.78;;;;;;;22.15;40.83;96910.97;5034225;28;21071;-77
2023/06/13 09:55:53;;;;;;;5.55;2.95;;;;;;;22.22;42.50;96925.47;5033754;28;20769;-78
2023/06/13 09:58:19;;;;;;;8.07;3.37;;;;;;;22.26;39.34;96928.25;5034174;28;20844;-77
2023/06/13 10:00:48;;;;;;;6.22;2.78;;;;;;;22.36;40.53;96923.22;5034317;28;20445;-77
2023/06/13 10:03:18;;;;;;;5.45;2.50;;;;;;;22.46;42.45;96907.69;5034368;28;20435;-78
2023/06/13 10:05:45;;;;;;;5.00;3.00;;;;;;;22.39;38.87;96910.97;5033142;28;20459;-78
2023/06/13 10:08:11;;;;;;;6.50;2.83;;;;;;;22.54;41.55;96923.78;5034753;28;20399;-78
2023/06/13 10:10:37;;;;;;;8.25;3.35;;;;;;;22.54;37.54;96909.50;5034869;28;20414;-77
2023/06/13 10:13:10;;;;;;;3.78;2.58;;;;;;;22.61;40.05;96898.91;5033711;28;20407;-78
2023/06/13 10:15:40;;;;;;;3.90;2.42;;;;;;;22.75;41.88;96897.44;5048261;28;20504;-77
2023/06/13 10:18:14;;;;;;;4.55;2.53;;;;;;;22.91;39.63;96904.81;5053283;28;20397;-77
2023/06/13 10:20:40;;;;;;;7.35;3.20;;;;;;;22.89;36.98;96915.16;5053885;28;20425;-78
2023/06/13 10:23:08;;;;;;;3.80;2.28;;;;;;;22.99;39.19;96915.50;5054047;28;20409;-78
2023/06/13 10:25:37;;;;;;;7.27;2.77;;;;;;;23.02;39.03;96905.91;5052235;28;20492;-77
2023/06/13 10:28:16;;;;;;;6.13;2.70;;;;;;;23.05;39.05;96902.53;5052736;28;20408;-77
2023/06/13 10:31:01;;;;;;;5.72;2.60;;;;;;;23.20;40.89;96904.50;5053984;28;20404;-77
2023/06/13 10:33:44;;;;;;;8.32;3.15;;;;;;;23.23;37.35;96903.78;5054178;28;20766;-78
2023/06/13 10:36:23;;;;;;;5.03;2.50;;;;;;;23.39;38.27;96899.22;5054529;28;20432;-77
2023/06/13 10:39:24;;;;;;;5.47;2.80;;;;;;;23.49;38.62;96911.47;5055049;28;20397;-78
2023/06/13 10:42:14;;;;;;;4.22;2.53;;;;;;;23.61;38.88;96908.69;5056416;28;20417;-79
2023/06/13 10:44:48;;;;;;;7.30;3.43;;;;;;;23.73;37.96;96903.22;5054562;28;20401;-77
2023/06/13 10:47:17;;;;;;;8.52;3.20;;;;;;;23.81;37.74;96904.19;5048893;28;20427;-77
2023/06/13 10:49:45;;;;;;;6.00;2.80;;;;;;;23.85;38.09;96896.94;5035081;28;20422;-78
2023/06/13 10:52:12;;;;;;;5.38;2.60;;;;;;;23.97;38.93;96913.09;5033661;28;20414;-77
2023/06/13 10:54:39;;;;;;;6.00;3.40;;;;;;;23.99;36.42;96894.59;5033531;28;20449;-78
2023/06/13 10:57:06;;;;;;;5.30;3.03;;;;;;;23.99;36.01;96894.59;5032340;28;20403;-77
2023/06/13 10:59:37;;;;;;;6.28;2.92;;;;;;;24.08;36.03;96897.91;5033829;28;20457;-77
2023/06/13 11:02:05;;;;;;;5.40;3.00;;;;;;;24.12;36.70;96903.41;5035106;28;20916;-78
2023/06/13 11:04:32;;;;;;;5.57;2.50;;;;;;;24.17;36.75;96890.38;5031552;28;20403;-78
2023/06/13 11:07:26;;;;;;;10.27;3.10;;;;;;;24.18;34.25;96889.25;5032594;28;20411;-78
2023/06/13 11:10:03;;;;;;;7.57;3.05;;;;;;;24.25;33.11;96892.16;5031307;28;20407;-78
2023/06/13 11:12:30;;;;;;;4.32;2.97;;;;;;;24.10;34.08;96878.63;5037107;28;20423;-78
2023/06/13 11:14:59;;;;;;;5.57;2.90;;;;;;;24.12;35.78;96873.66;5037055;28;20449;-77
2023/06/13 11:17:27;;;;;;;9.20;3.53;;;;;;;24.06;32.70;96878.53;5038034;28;20406;-79
2023/06/13 11:19:56;;;;;;;5.77;3.00;;;;;;;24.08;35.38;96884.38;5037405;28;20403;-78
2023/06/13 11:22:23;;;;;;;7.43;3.20;;;;;;;24.18;36.07;96877.66;5036359;28;20409;-78
2023/06/13 11:24:52;;;;;;;6.63;2.42;;;;;;;24.28;37.00;96886.03;5038664;28;20904;-79
2023/06/13 11:27:18;;;;;;;6.80;2.88;;;;;;;24.23;34.32;96867.38;5037884;28;20418;-78
2023/06/13 11:29:47;;;;;;;4.32;2.78;;;;;;;24.30;35.30;96882.97;5035349;28;20419;-77
2023/06/13 11:32:14;;;;;;;5.72;3.00;;;;;;;24.27;35.03;96881.00;5031349;28;20450;-77
2023/06/13 11:34:47;;;;;;;6.37;2.80;;;;;;;24.41;36.62;96869.69;5031703;28;20634;-77
2023/06/13 11:37:27;;;;;;;4.30;2.50;;;;;;;24.60;36.85;96853.47;5031102;28;20410;-78
2023/06/13 11:39:57;;;;;;;11.10;2.80;;;;;;;24.67;34.68;96859.84;5032420;28;20479;-78